Time;durP1;ratioP1;P1;durP2;ratioP2;P2;SDS_P1;SDS_P2;PMS_P1;PMS_P2;Temp;Humidity;BMP_temperature;BMP_pressure;BME280_temperature;BME280_humidity;BME280_pressure;Samples;Min_cycle;Max_cycle;Signal;HPM_P1;HPM_P2
2024/01/25 00:01:54;;;;;;;32.00;4.90;;;7.80;99.90;;;;;;6272116;22;20018;-75
2024/01/25 00:04:20;;;;;;;34.58;5.55;;;7.80;99.90;;;;;;6274101;22;20114;-75
2024/01/25 00:06:46;;;;;;;29.40;5.70;;;7.80;99.90;;;;;;6301901;22;20019;-75
2024/01/25 00:09:12;;;;;;;35.30;5.55;;;7.80;99.90;;;;;;6273455;22;20019;-75
2024/01/25 00:11:38;;;;;;;;;;;7.80;99.90;;;;;;6302965;22;20099;-75
2024/01/25 00:14:04;;;;;;;33.67;5.15;;;7.80;99.90;;;;;;6274031;22;19958;-75
2024/01/25 00:16:30;;;;;;;33.47;5.05;;;7.70;99.90;;;;;;6248649;22;20018;-76
2024/01/25 00:18:56;;;;;;;34.47;5.07;;;7.70;99.90;;;;;;6273820;22;20022;-76
2024/01/25 00:21:22;;;;;;;36.63;5.32;;;7.60;99.90;;;;;;6301521;22;20019;-76
2024/01/25 00:23:48;;;;;;;31.63;5.35;;;7.60;99.90;;;;;;6248049;22;20508;-74
2024/01/25 00:26:14;;;;;;;36.45;6.35;;;7.50;99.90;;;;;;6302205;22;20034;-74
2024/01/25 00:28:41;;;;;;;29.38;5.68;;;7.50;99.90;;;;;;6301307;22;20712;-75
2024/01/25 00:31:07;;;;;;;27.00;5.22;;;7.50;99.90;;;;;;6301780;22;20025;-75
2024/01/25 00:33:33;;;;;;;27.90;4.93;;;7.50;99.90;;;;;;6301313;22;20015;-74
2024/01/25 00:35:59;;;;;;;38.53;5.75;;;7.40;99.90;;;;;;6301330;22;20038;-75
2024/01/25 00:38:26;;;;;;;;;;;7.30;99.90;;;;;;6276165;22;20049;-74
2024/01/25 00:40:53;;;;;;;34.25;5.25;;;7.30;99.90;;;;;;6304439;22;19921;-74
2024/01/25 00:43:20;;;;;;;34.78;5.78;;;7.30;99.90;;;;;;6250456;22;20020;-74
2024/01/25 00:45:46;;;;;;;34.75;6.00;;;7.30;99.90;;;;;;6303376;22;20011;-74
2024/01/25 00:48:12;;;;;;;;;;;7.20;99.90;;;;;;6304101;22;20057;-74
2024/01/25 00:50:38;;;;;;;33.38;5.50;;;7.10;99.90;;;;;;6302729;22;19993;-75
2024/01/25 00:53:05;;;;;;;33.83;4.95;;;7.10;99.90;;;;;;6302219;22;20041;-75
2024/01/25 00:55:31;;;;;;;33.72;5.13;;;7.10;99.90;;;;;;6275980;22;20011;-74
2024/01/25 00:57:57;;;;;;;37.15;6.65;;;7.00;99.90;;;;;;6275559;22;20011;-74
2024/01/25 01:00:24;;;;;;;32.78;5.43;;;7.10;99.90;;;;;;6275089;22;20019;-75
2024/01/25 01:02:50;;;;;;;;;;;7.00;99.90;;;;;;6303855;22;20015;-74
2024/01/25 01:05:16;;;;;;;27.80;5.30;;;6.90;99.90;;;;;;6277164;22;20304;-74
2024/01/25 01:07:42;;;;;;;40.63;6.82;;;6.90;99.90;;;;;;6243451;22;20462;-75
2024/01/25 01:10:09;;;;;;;36.70;6.07;;;7.00;99.90;;;;;;6270948;22;20012;-74
2024/01/25 01:12:35;;;;;;;30.38;5.68;;;6.90;99.90;;;;;;6270686;22;20318;-74
2024/01/25 01:15:00;;;;;;;31.10;5.00;;;6.90;99.90;;;;;;6270868;22;20012;-74
2024/01/25 01:17:27;;;;;;;34.60;6.15;;;6.90;99.90;;;;;;6270954;22;20008;-74
2024/01/25 01:19:52;;;;;;;31.70;5.80;;;7.00;99.90;;;;;;6269904;22;20467;-74
2024/01/25 01:22:18;;;;;;;31.73;5.47;;;6.90;99.90;;;;;;6271190;22;20019;-74
2024/01/25 01:24:43;;;;;;;29.90;5.03;;;6.90;99.90;;;;;;6269284;22;20432;-74
2024/01/25 01:27:09;;;;;;;28.63;5.20;;;6.90;99.90;;;;;;6271226;22;20096;-74
2024/01/25 01:29:34;;;;;;;34.55;5.45;;;7.00;99.90;;;;;;6270291;22;20016;-74
2024/01/25 01:32:00;;;;;;;35.60;5.80;;;7.00;99.90;;;;;;6270688;22;20015;-74
2024/01/25 01:34:26;;;;;;;32.55;5.60;;;7.00;99.90;;;;;;6270664;22;20324;-74
2024/01/25 01:36:51;;;;;;;28.92;4.80;;;7.00;99.90;;;;;;6271090;22;20021;-75
2024/01/25 01:39:17;;;;;;;31.20;5.95;;;7.00;99.90;;;;;;6270659;22;20050;-74
2024/01/25 01:41:48;;;;;;;29.57;4.87;;;7.00;99.90;;;;;;6270675;22;20015;-74
2024/01/25 01:44:13;;;;;;;31.00;5.03;;;7.00;99.90;;;;;;6270390;22;20227;-74
2024/01/25 01:46:40;;;;;;;31.37;5.43;;;6.90;99.90;;;;;;6271818;22;20376;-75
2024/01/25 01:49:08;;;;;;;30.13;4.55;;;7.00;99.90;;;;;;6270417;22;20242;-75
2024/01/25 01:51:35;;;;;;;32.15;4.93;;;6.90;99.90;;;;;;6268779;22;20058;-77
2024/01/25 01:54:05;;;;;;;29.20;5.38;;;6.90;99.90;;;;;;6271896;22;20463;-75
2024/01/25 01:56:32;;;;;;;34.22;5.25;;;6.90;99.90;;;;;;6270163;22;20015;-74
2024/01/25 01:59:04;;;;;;;33.95;5.22;;;6.90;99.90;;;;;;6270771;22;20011;-74
2024/01/25 02:01:31;;;;;;;23.52;4.45;;;6.90;99.90;;;;;;6271819;22;20051;-74
2024/01/25 02:03:57;;;;;;;33.30;5.60;;;6.90;99.90;;;;;;6270016;22;20020;-75
2024/01/25 02:06:26;;;;;;;29.80;5.13;;;6.80;99.90;;;;;;6270812;22;20022;-75
2024/01/25 02:08:58;;;;;;;32.35;4.75;;;6.80;99.90;;;;;;6270002;22;20091;-75
2024/01/25 02:11:24;;;;;;;35.35;4.68;;;6.80;99.90;;;;;;6268645;22;20628;-75
2024/01/25 02:13:49;;;;;;;27.30;4.75;;;6.80;99.90;;;;;;6267806;22;20012;-75
2024/01/25 02:16:15;;;;;;;32.22;5.60;;;6.70;99.90;;;;;;6242722;22;20433;-75
2024/01/25 02:18:42;;;;;;;33.30;5.90;;;6.80;99.90;;;;;;6269516;22;20016;-77
2024/01/25 02:21:07;;;;;;;34.88;5.20;;;6.70;99.90;;;;;;6268816;22;20019;-75
2024/01/25 02:23:33;;;;;;;31.10;5.05;;;6.80;99.90;;;;;;6268931;22;20026;-75
2024/01/25 02:25:59;;;;;;;35.88;4.55;;;6.80;99.90;;;;;;6267920;22;20051;-75
2024/01/25 02:28:25;;;;;;;27.92;4.78;;;6.80;99.90;;;;;;6268079;22;20012;-75
2024/01/25 02:30:50;;;;;;;28.40;4.93;;;6.80;99.90;;;;;;6270667;22;20094;-75
2024/01/25 02:33:16;;;;;;;35.28;5.57;;;6.70;99.90;;;;;;6267624;22;20019;-75
2024/01/25 02:35:41;;;;;;;34.03;4.93;;;6.70;99.90;;;;;;6269031;22;20345;-75
2024/01/25 02:38:07;;;;;;;32.03;5.57;;;6.70;99.90;;;;;;6269849;22;20372;-75
2024/01/25 02:40:33;;;;;;;36.65;5.55;;;6.70;99.90;;;;;;6268642;22;20294;-74
2024/01/25 02:42:58;;;;;;;36.77;5.10;;;6.60;99.90;;;;;;6242948;22;20565;-74
2024/01/25 02:45:24;;;;;;;30.47;5.70;;;6.60;99.90;;;;;;6268470;22;20258;-76
2024/01/25 02:47:49;;;;;;;32.53;5.60;;;6.50;99.90;;;;;;6267857;22;20016;-75
2024/01/25 02:50:15;;;;;;;28.50;4.63;;;6.50;99.90;;;;;;6268595;22;20086;-75
2024/01/25 02:52:41;;;;;;;42.20;6.00;;;6.40;99.90;;;;;;6268440;22;20012;-75
2024/01/25 02:55:07;;;;;;;37.95;5.63;;;6.40;99.90;;;;;;6268710;22;20479;-75
2024/01/25 02:57:33;;;;;;;33.85;5.80;;;6.40;99.90;;;;;;6267471;22;20018;-75
2024/01/25 02:59:59;;;;;;;38.25;5.45;;;6.40;99.90;;;;;;6265502;22;20133;-76
2024/01/25 03:02:24;;;;;;;36.67;5.72;;;6.30;99.90;;;;;;6266213;22;20592;-75
2024/01/25 03:04:50;;;;;;;36.65;5.15;;;6.20;99.90;;;;;;6266847;22;20023;-76
2024/01/25 03:07:16;;;;;;;40.15;5.85;;;6.20;99.90;;;;;;6265990;22;20026;-75
2024/01/25 03:09:41;;;;;;;36.30;5.90;;;6.20;99.90;;;;;;6268175;22;20022;-76
2024/01/25 03:12:07;;;;;;;30.08;5.03;;;6.10;99.90;;;;;;6268143;22;20027;-75
2024/01/25 03:14:33;;;;;;;34.85;5.97;;;6.20;99.90;;;;;;6267835;22;20022;-75
2024/01/25 03:16:58;;;;;;;38.10;5.70;;;6.20;99.90;;;;;;6267221;22;20027;-75
2024/01/25 03:19:28;;;;;;;36.95;6.70;;;6.10;99.90;;;;;;6269870;22;20038;-76
2024/01/25 03:21:54;;;;;;;39.15;5.78;;;6.20;99.90;;;;;;6270209;22;20043;-75
2024/01/25 03:24:20;;;;;;;27.63;5.18;;;6.20;99.90;;;;;;6268155;22;20019;-75
2024/01/25 03:26:46;;;;;;;46.03;6.28;;;6.10;99.90;;;;;;6268322;22;20441;-75
2024/01/25 03:29:12;;;;;;;35.17;5.75;;;6.10;99.90;;;;;;6269564;22;20018;-75
2024/01/25 03:31:38;;;;;;;35.47;5.88;;;6.10;99.90;;;;;;6267872;22;20020;-75
2024/01/25 03:34:04;;;;;;;36.30;5.55;;;6.10;99.90;;;;;;6270083;22;20392;-75
2024/01/25 03:36:31;;;;;;;;;;;6.10;99.90;;;;;;6268758;22;20425;-75
2024/01/25 03:38:56;;;;;;;33.58;4.80;;;6.10;99.90;;;;;;6268217;22;19914;-75
2024/01/25 03:41:23;;;;;;;36.28;6.60;;;6.10;99.90;;;;;;6268430;22;20107;-75
2024/01/25 03:43:49;;;;;;;40.38;5.45;;;6.10;99.90;;;;;;6269951;22;20012;-75
2024/01/25 03:46:14;;;;;;;34.13;6.40;;;6.10;99.90;;;;;;6267173;22;20678;-76
2024/01/25 03:48:40;;;;;;;45.85;7.45;;;6.10;99.90;;;;;;6269821;22;20012;-75
2024/01/25 03:51:06;;;;;;;31.50;5.20;;;6.00;99.90;;;;;;6268174;22;20020;-76
2024/01/25 03:53:31;;;;;;;35.53;5.43;;;5.90;99.90;;;;;;6267667;22;20039;-75
2024/01/25 03:55:57;;;;;;;39.17;6.00;;;5.90;99.90;;;;;;6268058;22;20246;-75
2024/01/25 03:58:22;;;;;;;46.10;6.95;;;6.00;99.90;;;;;;6267889;22;20047;-75
2024/01/25 04:00:48;;;;;;;40.13;5.67;;;5.90;99.90;;;;;;6266975;22;20016;-75
2024/01/25 04:03:14;;;;;;;32.00;4.95;;;5.90;99.90;;;;;;6268119;22;20673;-75
2024/01/25 04:05:39;;;;;;;35.85;6.13;;;5.90;99.90;;;;;;6268316;22;20019;-75
2024/01/25 04:08:06;;;;;;;39.40;6.85;;;5.90;99.90;;;;;;6267935;22;20028;-75
2024/01/25 04:10:31;;;;;;;44.35;5.80;;;5.80;99.90;;;;;;6268389;22;20007;-75
2024/01/25 04:12:57;;;;;;;41.65;5.93;;;5.90;99.90;;;;;;6269874;22;20016;-75
2024/01/25 04:15:23;;;;;;;30.35;4.75;;;5.80;99.90;;;;;;6268874;22;20030;-75
2024/01/25 04:17:49;;;;;;;33.35;5.65;;;5.80;99.90;;;;;;6270006;22;20022;-75
2024/01/25 04:20:15;;;;;;;36.25;5.55;;;5.70;99.90;;;;;;6269916;22;20011;-75
2024/01/25 04:22:41;;;;;;;33.47;5.68;;;5.70;99.90;;;;;;6269715;22;20047;-76
2024/01/25 04:25:07;;;;;;;40.28;6.32;;;5.70;99.90;;;;;;6270628;22;20019;-75
2024/01/25 04:27:32;;;;;;;36.22;6.15;;;5.80;99.90;;;;;;6272361;22;20008;-75
2024/01/25 04:29:58;;;;;;;35.17;5.80;;;5.70;99.90;;;;;;6268494;22;20073;-76
2024/01/25 04:32:24;;;;;;;44.03;6.53;;;5.70;99.90;;;;;;6269755;22;20266;-75
2024/01/25 04:34:49;;;;;;;41.55;5.78;;;5.60;99.90;;;;;;6269826;22;20254;-75
2024/01/25 04:37:15;;;;;;;37.55;6.25;;;5.60;99.90;;;;;;6270013;22;20011;-76
2024/01/25 04:39:41;;;;;;;31.65;5.65;;;5.60;99.90;;;;;;6269621;22;20138;-75
2024/01/25 04:42:08;;;;;;;26.00;4.60;;;5.50;99.90;;;;;;6271451;22;20059;-75
2024/01/25 04:44:33;;;;;;;;;;;5.50;99.90;;;;;;6243623;22;20098;-75
2024/01/25 04:46:59;;;;;;;33.60;5.25;;;5.40;99.90;;;;;;6270058;22;20397;-75
2024/01/25 04:49:25;;;;;;;34.45;5.35;;;5.40;99.90;;;;;;6271722;22;20139;-76
2024/01/25 04:51:51;;;;;;;31.13;5.65;;;5.50;99.90;;;;;;6269494;22;20368;-75
2024/01/25 04:54:17;;;;;;;38.80;5.38;;;5.50;99.90;;;;;;6269267;22;20024;-75
2024/01/25 04:56:43;;;;;;;30.70;5.47;;;5.50;99.90;;;;;;6269500;22;20019;-75
2024/01/25 04:59:09;;;;;;;33.60;4.88;;;5.40;99.90;;;;;;6268033;22;20043;-75
2024/01/25 05:01:34;;;;;;;39.58;6.25;;;5.50;99.90;;;;;;6267944;22;20020;-76
2024/01/25 05:04:00;;;;;;;27.55;5.50;;;5.40;99.90;;;;;;6267891;22;20020;-75
2024/01/25 05:06:25;;;;;;;38.42;5.22;;;5.40;99.90;;;;;;6267418;22;20463;-75
2024/01/25 05:08:51;;;;;;;37.08;5.50;;;5.40;99.90;;;;;;6268988;22;20015;-76
2024/01/25 05:11:17;;;;;;;33.15;5.47;;;5.40;99.90;;;;;;6268907;22;20007;-76
2024/01/25 05:13:43;;;;;;;23.75;5.35;;;5.40;99.90;;;;;;6267812;22;20036;-76
2024/01/25 05:16:08;;;;;;;22.38;4.43;;;5.40;99.90;;;;;;6243315;22;20537;-76
2024/01/25 05:18:34;;;;;;;32.92;5.75;;;5.40;99.90;;;;;;6269237;22;20016;-75
2024/01/25 05:21:00;;;;;;;41.10;5.47;;;5.40;99.90;;;;;;6269462;22;20016;-75
2024/01/25 05:23:26;;;;;;;29.90;5.80;;;5.40;99.90;;;;;;6270423;22;20011;-76
2024/01/25 05:25:51;;;;;;;30.73;5.05;;;5.40;99.90;;;;;;6266653;22;20012;-76
2024/01/25 05:28:17;;;;;;;33.95;5.43;;;5.40;99.90;;;;;;6268049;22;20069;-75
2024/01/25 05:30:42;;;;;;;39.25;6.57;;;5.30;99.90;;;;;;6269272;22;20008;-76
2024/01/25 05:33:08;;;;;;;36.58;5.60;;;5.30;99.90;;;;;;6270816;22;20012;-76
2024/01/25 05:35:34;;;;;;;30.98;5.00;;;5.30;99.90;;;;;;6269101;22;20503;-76
2024/01/25 05:38:00;;;;;;;;;;;5.20;99.90;;;;;;6270146;22;20062;-76
2024/01/25 05:40:25;;;;;;;28.92;4.90;;;5.20;99.90;;;;;;6268370;22;19915;-76
2024/01/25 05:42:51;;;;;;;28.80;5.28;;;5.20;99.90;;;;;;6267644;22;20019;-76
2024/01/25 05:45:19;;;;;;;35.73;5.10;;;5.20;99.90;;;;;;6267276;22;20070;-76
2024/01/25 05:47:45;;;;;;;25.75;4.75;;;5.20;99.90;;;;;;6268891;22;20246;-76
2024/01/25 05:50:11;;;;;;;24.42;5.15;;;5.10;99.90;;;;;;6268400;22;20024;-76
2024/01/25 05:52:37;;;;;;;30.80;5.73;;;5.10;99.90;;;;;;6268340;22;20506;-76
2024/01/25 05:55:03;;;;;;;33.50;5.47;;;5.10;99.90;;;;;;6267936;22;20254;-76
2024/01/25 05:57:29;;;;;;;32.70;5.38;;;5.10;99.90;;;;;;6269606;22;20015;-76
2024/01/25 05:59:55;;;;;;;36.17;5.78;;;5.00;99.90;;;;;;6268207;22;20011;-78
2024/01/25 06:02:20;;;;;;;26.30;4.30;;;5.00;99.90;;;;;;6268805;22;20135;-77
2024/01/25 06:04:46;;;;;;;30.67;5.23;;;4.90;99.90;;;;;;6268541;22;20020;-76
2024/01/25 06:07:11;;;;;;;30.57;5.03;;;5.00;99.90;;;;;;6269324;22;20299;-76
2024/01/25 06:09:37;;;;;;;28.80;4.55;;;4.90;99.90;;;;;;6270847;22;20238;-76
2024/01/25 06:12:04;;;;;;;32.55;4.53;;;4.90;99.90;;;;;;6241883;22;20020;-76
2024/01/25 06:14:30;;;;;;;29.88;4.60;;;4.90;99.90;;;;;;6268183;22;20018;-75
2024/01/25 06:16:56;;;;;;;23.23;4.07;;;4.80;99.90;;;;;;6268600;22;20012;-76
2024/01/25 06:19:22;;;;;;;19.05;4.03;;;4.70;99.90;;;;;;6268750;22;20405;-75
2024/01/25 06:21:47;;;;;;;27.85;4.68;;;4.60;99.90;;;;;;6268094;22;20019;-76
2024/01/25 06:24:13;;;;;;;24.73;4.07;;;4.50;99.90;;;;;;6268236;22;20012;-75
2024/01/25 06:26:38;;;;;;;27.90;4.38;;;4.40;99.90;;;;;;6267705;22;20023;-75
2024/01/25 06:29:04;;;;;;;25.00;5.28;;;4.30;99.90;;;;;;6267790;22;20374;-75
2024/01/25 06:31:30;;;;;;;25.48;4.57;;;4.30;99.90;;;;;;6267690;22;20024;-76
2024/01/25 06:33:56;;;;;;;22.13;4.30;;;4.20;99.90;;;;;;6268284;22;20022;-75
2024/01/25 06:36:22;;;;;;;23.83;5.18;;;4.20;99.90;;;;;;6267885;22;20008;-75
2024/01/25 06:38:48;;;;;;;20.45;3.65;;;4.20;99.90;;;;;;6267672;22;20023;-76
2024/01/25 06:41:15;;;;;;;24.38;4.40;;;4.10;99.90;;;;;;6267520;22;20722;-75
2024/01/25 06:43:40;;;;;;;23.48;4.32;;;4.10;99.90;;;;;;6268381;22;20416;-76
2024/01/25 06:46:06;;;;;;;29.27;5.53;;;4.10;99.90;;;;;;6269708;22;20059;-76
2024/01/25 06:48:32;;;;;;;25.17;4.45;;;4.10;99.90;;;;;;6270279;22;20023;-76
2024/01/25 06:50:58;;;;;;;23.92;4.32;;;4.10;99.90;;;;;;6267195;22;20022;-76
2024/01/25 06:53:24;;;;;;;32.22;4.85;;;4.10;99.90;;;;;;6269359;22;20019;-76
2024/01/25 06:55:49;;;;;;;25.77;4.32;;;4.10;99.90;;;;;;6267920;22;20314;-76
2024/01/25 06:58:15;;;;;;;28.07;4.30;;;4.10;99.90;;;;;;6268095;22;20093;-76
2024/01/25 07:00:42;;;;;;;28.73;4.28;;;4.20;99.90;;;;;;6267632;22;20645;-76
2024/01/25 07:03:08;;;;;;;28.55;5.40;;;4.10;99.90;;;;;;6241478;22;20440;-76
2024/01/25 07:05:35;;;;;;;29.42;4.80;;;4.20;99.90;;;;;;6267768;22;20024;-78
2024/01/25 07:08:01;;;;;;;19.63;3.83;;;4.20;99.90;;;;;;6242161;22;20039;-76
2024/01/25 07:10:27;;;;;;;36.67;5.28;;;4.10;99.90;;;;;;6268161;22;20026;-76
2024/01/25 07:12:53;;;;;;;31.70;5.05;;;4.10;99.90;;;;;;6268625;22;20016;-76
2024/01/25 07:15:20;;;;;;;26.52;5.50;;;4.10;99.90;;;;;;6268575;22;20463;-77
2024/01/25 07:17:45;;;;;;;18.45;3.83;;;4.10;99.90;;;;;;6243558;22;20007;-78
2024/01/25 07:20:11;;;;;;;22.98;4.55;;;4.00;99.90;;;;;;6268839;22;20064;-77
2024/01/25 07:22:37;;;;;;;26.95;5.07;;;4.00;99.90;;;;;;6270407;22;20090;-77
2024/01/25 07:25:03;;;;;;;32.07;5.60;;;4.00;99.90;;;;;;6268977;22;20051;-77
2024/01/25 07:27:29;;;;;;;23.23;4.22;;;4.00;99.90;;;;;;6268774;22;20330;-77
2024/01/25 07:29:54;;;;;;;22.50;4.13;;;3.90;99.90;;;;;;6268440;22;20051;-76
2024/01/25 07:32:20;;;;;;;16.33;3.17;;;3.90;99.90;;;;;;6269216;22;20345;-77
2024/01/25 07:34:45;;;;;;;21.75;4.40;;;3.90;99.90;;;;;;6268629;22;20049;-76
2024/01/25 07:37:12;;;;;;;29.33;4.45;;;3.90;99.90;;;;;;6268307;22;20015;-76
2024/01/25 07:39:38;;;;;;;;;;;4.00;99.90;;;;;;6269192;22;20019;-77
2024/01/25 07:42:03;;;;;;;28.50;5.22;;;4.00;99.90;;;;;;6243669;22;20327;-76
2024/01/25 07:44:29;;;;;;;25.60;5.30;;;4.00;99.90;;;;;;6268412;22;20094;-76
2024/01/25 07:46:54;;;;;;;31.95;5.07;;;3.90;99.90;;;;;;6270195;22;20070;-76
2024/01/25 07:49:20;;;;;;;36.30;6.25;;;4.00;99.90;;;;;;6271084;22;20341;-76
2024/01/25 07:51:46;;;;;;;39.53;6.35;;;4.00;99.90;;;;;;6244740;22;20023;-77
2024/01/25 07:54:12;;;;;;;34.40;5.65;;;4.00;99.90;;;;;;6270842;22;20466;-76
2024/01/25 07:56:38;;;;;;;39.65;5.47;;;4.10;99.90;;;;;;6270736;22;20020;-76
2024/01/25 07:59:04;;;;;;;30.77;5.63;;;4.00;99.90;;;;;;6270356;22;20231;-77
2024/01/25 08:01:29;;;;;;;28.02;4.97;;;4.10;99.90;;;;;;6270602;22;20073;-76
2024/01/25 08:03:55;;;;;;;31.90;5.40;;;4.10;99.90;;;;;;6270309;22;20079;-76
2024/01/25 08:06:22;;;;;;;28.15;5.72;;;4.00;99.90;;;;;;6244364;22;20026;-76
2024/01/25 08:08:47;;;;;;;;;;;4.10;99.90;;;;;;6271720;22;20011;-77
2024/01/25 08:11:13;;;;;;;32.33;6.57;;;4.20;99.90;;;;;;6270411;22;19918;-76
2024/01/25 08:13:42;;;;;;;33.42;6.13;;;4.20;99.90;;;;;;6269895;22;20037;-76
2024/01/25 08:16:10;;;;;;;25.25;4.80;;;4.20;99.90;;;;;;6244968;22;20467;-77
2024/01/25 08:18:36;;;;;;;24.75;4.97;;;4.20;99.90;;;;;;6270581;22;20011;-76
2024/01/25 08:21:02;;;;;;;35.78;5.20;;;4.30;99.90;;;;;;6244574;22;20054;-76
2024/01/25 08:23:27;;;;;;;27.00;4.78;;;4.30;99.90;;;;;;6271056;22;20042;-77
2024/01/25 08:25:53;;;;;;;25.52;5.28;;;4.30;99.90;;;;;;6245335;22;20012;-77
2024/01/25 08:28:19;;;;;;;32.85;5.55;;;4.40;99.90;;;;;;6270557;22;20078;-76
2024/01/25 08:30:45;;;;;;;30.00;5.75;;;4.40;99.90;;;;;;6244099;22;20015;-77
2024/01/25 08:33:11;;;;;;;25.55;4.82;;;4.40;99.90;;;;;;6270175;22;20502;-76
2024/01/25 08:35:36;;;;;;;41.70;6.50;;;4.50;99.90;;;;;;6269268;22;20015;-77
2024/01/25 08:38:02;;;;;;;34.00;5.77;;;4.50;99.90;;;;;;6270478;22;20012;-77
2024/01/25 08:40:29;;;;;;;25.83;5.45;;;4.60;99.90;;;;;;6243770;22;20238;-77
2024/01/25 08:42:54;;;;;;;;;;;4.60;99.90;;;;;;6269885;22;20020;-76
2024/01/25 08:45:20;;;;;;;26.30;5.78;;;4.60;99.90;;;;;;6243043;22;19990;-76
2024/01/25 08:47:46;;;;;;;25.90;4.40;;;4.60;99.90;;;;;;6269630;22;20038;-76
2024/01/25 08:50:12;;;;;;;15.18;3.85;;;4.70;99.90;;;;;;6242473;22;20011;-77
2024/01/25 08:52:40;;;;;;;25.05;4.85;;;4.70;99.90;;;;;;6243892;22;20020;-77
2024/01/25 08:55:06;;;;;;;27.58;5.00;;;4.70;99.90;;;;;;6268861;22;20757;-76
2024/01/25 08:57:32;;;;;;;26.90;4.38;;;4.70;99.90;;;;;;6268716;22;20032;-77
2024/01/25 09:00:00;;;;;;;33.27;6.33;;;4.80;99.90;;;;;;6269548;22;20012;-77
2024/01/25 09:02:27;;;;;;;36.22;5.55;;;4.90;99.90;;;;;;6270223;22;20533;-77
2024/01/25 09:04:53;;;;;;;27.02;4.88;;;4.90;99.90;;;;;;6268549;22;20019;-76
2024/01/25 09:07:22;;;;;;;30.75;5.47;;;4.90;99.90;;;;;;6243499;22;20015;-77
2024/01/25 09:09:48;;;;;;;25.13;4.50;;;4.90;99.90;;;;;;6269902;22;20012;-76
2024/01/25 09:12:15;;;;;;;27.23;5.15;;;5.00;99.90;;;;;;6269917;22;20022;-78
2024/01/25 09:14:42;;;;;;;30.38;5.82;;;5.00;99.90;;;;;;6269868;22;20015;-77
2024/01/25 09:17:08;;;;;;;;;;;5.00;99.90;;;;;;6270911;22;20090;-77
2024/01/25 09:19:34;;;;;;;27.77;4.38;;;5.00;99.90;;;;;;6269285;22;19926;-77
2024/01/25 09:22:04;;;;;;;25.58;4.40;;;5.00;99.90;;;;;;6270372;22;20019;-77
2024/01/25 09:24:30;;;;;;;21.92;4.30;;;5.10;99.90;;;;;;6270210;22;20024;-78
2024/01/25 09:26:55;;;;;;;29.65;4.97;;;5.20;99.90;;;;;;6270075;22;20086;-77
2024/01/25 09:29:21;;;;;;;27.33;5.32;;;5.30;99.90;;;;;;6271443;22;20328;-77
2024/01/25 09:31:46;;;;;;;33.60;5.85;;;5.30;99.90;;;;;;6270060;22;20103;-76
2024/01/25 09:34:12;;;;;;;37.60;5.77;;;5.30;99.90;;;;;;6268944;22;20020;-77
2024/01/25 09:36:38;;;;;;;28.67;5.83;;;5.40;99.90;;;;;;6271323;22;20266;-77
2024/01/25 09:39:04;;;;;;;33.25;6.72;;;5.40;99.90;;;;;;6270230;22;20023;-77
2024/01/25 09:41:29;;;;;;;33.05;6.25;;;5.40;99.90;;;;;;6268819;22;20027;-77
2024/01/25 09:43:55;;;;;;;32.83;7.25;;;5.40;99.90;;;;;;6271794;22;20011;-77
2024/01/25 09:46:21;;;;;;;34.38;6.47;;;5.50;99.90;;;;;;6270197;22;20027;-77
2024/01/25 09:48:47;;;;;;;29.67;5.95;;;5.60;99.90;;;;;;6269798;22;20016;-77
2024/01/25 09:51:13;;;;;;;27.98;4.90;;;5.60;99.90;;;;;;6269996;22;20012;-77
2024/01/25 09:53:41;;;;;;;30.38;5.97;;;5.70;99.90;;;;;;6270176;22;20042;-77
2024/01/25 09:56:09;;;;;;;29.30;5.93;;;5.70;99.90;;;;;;6271710;22;20423;-77
2024/01/25 09:58:45;;;;;;;31.13;5.68;;;5.70;99.90;;;;;;6270128;22;20011;-77
2024/01/25 10:01:13;;;;;;;41.10;6.47;;;5.80;99.90;;;;;;6271217;22;20012;-78
2024/01/25 10:03:42;;;;;;;27.63;5.30;;;5.80;99.90;;;;;;6269235;22;20269;-77
2024/01/25 10:06:08;;;;;;;27.88;5.28;;;5.80;99.90;;;;;;6268953;22;20026;-77
2024/01/25 10:08:34;;;;;;;30.27;5.28;;;5.90;99.90;;;;;;6269021;22;20022;-77
2024/01/25 10:11:00;;;;;;;22.17;4.95;;;5.90;99.90;;;;;;6269604;22;20441;-77
2024/01/25 10:13:27;;;;;;;31.90;6.53;;;6.00;99.90;;;;;;6271566;22;20022;-77
2024/01/25 10:15:54;;;;;;;25.25;4.82;;;6.00;99.90;;;;;;6271214;22;20057;-77
2024/01/25 10:18:20;;;;;;;32.60;5.68;;;6.10;99.90;;;;;;6269394;22;20015;-77
2024/01/25 10:20:46;;;;;;;35.00;5.82;;;6.10;99.90;;;;;;6271688;22;20040;-77
2024/01/25 10:23:11;;;;;;;24.63;5.72;;;6.10;99.90;;;;;;6269707;22;20104;-77
2024/01/25 10:25:37;;;;;;;30.98;5.70;;;6.20;99.90;;;;;;6270188;22;20019;-77
2024/01/25 10:28:07;;;;;;;26.02;6.03;;;6.20;99.90;;;;;;6269947;22;20023;-77
2024/01/25 10:30:34;;;;;;;46.60;7.32;;;6.20;99.90;;;;;;6269134;22;20016;-78
2024/01/25 10:33:00;;;;;;;31.08;5.75;;;6.20;99.90;;;;;;6269085;22;20041;-78
2024/01/25 10:35:26;;;;;;;;;;;6.10;99.90;;;;;;6269445;22;20016;-78
2024/01/25 10:37:52;;;;;;;35.92;6.28;;;6.10;99.90;;;;;;6268989;22;19919;-79
2024/01/25 10:40:22;;;;;;;29.38;5.50;;;6.20;99.90;;;;;;6271733;22;20011;-78
2024/01/25 10:42:48;;;;;;;25.10;5.63;;;6.10;99.90;;;;;;6271701;22;20007;-77
2024/01/25 10:45:14;;;;;;;40.20;7.15;;;6.10;99.90;;;;;;6270496;22;20098;-78
2024/01/25 10:47:44;;;;;;;35.13;6.45;;;6.20;99.90;;;;;;6268805;22;20015;-78
2024/01/25 10:50:13;;;;;;;34.42;7.15;;;6.30;99.90;;;;;;6269298;22;20023;-78
2024/01/25 10:52:43;;;;;;;32.60;6.15;;;6.40;99.90;;;;;;6269480;22;20034;-78
2024/01/25 10:55:11;;;;;;;31.70;5.63;;;6.50;99.90;;;;;;6243955;22;20015;-78
2024/01/25 10:57:43;;;;;;;33.60;6.28;;;6.70;99.90;;;;;;6271223;22;20340;-78
2024/01/25 11:00:17;;;;;;;28.80;6.60;;;6.90;99.90;;;;;;6270225;22;20011;-78
2024/01/25 11:02:45;;;;;;;34.65;5.93;;;7.00;99.90;;;;;;6269446;22;20095;-79
2024/01/25 11:05:16;;;;;;;40.42;6.68;;;7.10;99.90;;;;;;6273986;22;20023;-79
2024/01/25 11:07:47;;;;;;;29.63;6.53;;;7.20;99.90;;;;;;6268714;22;20012;-77
2024/01/25 11:10:25;;;;;;;32.80;6.53;;;7.50;99.90;;;;;;6268007;22;20047;-77
2024/01/25 11:12:54;;;;;;;36.65;6.90;;;7.60;99.90;;;;;;6270848;22;20008;-78
2024/01/25 11:15:29;;;;;;;32.60;6.97;;;7.50;99.90;;;;;;6268107;22;20024;-77
2024/01/25 11:17:55;;;;;;;34.00;6.60;;;7.50;99.90;;;;;;6269631;22;20095;-77
2024/01/25 11:20:27;;;;;;;29.25;6.60;;;7.50;99.90;;;;;;6270923;22;20019;-77
2024/01/25 11:23:04;;;;;;;27.00;5.78;;;7.60;99.90;;;;;;6271211;22;20091;-77
2024/01/25 11:25:31;;;;;;;35.67;6.20;;;7.60;99.90;;;;;;6269361;22;20019;-78
2024/01/25 11:27:58;;;;;;;25.40;5.68;;;7.70;99.90;;;;;;6269372;22;20008;-78
2024/01/25 11:30:28;;;;;;;28.45;5.63;;;7.80;99.90;;;;;;6268385;22;20370;-77
2024/01/25 11:32:53;;;;;;;31.13;5.70;;;8.00;99.90;;;;;;6269465;22;20120;-77
2024/01/25 11:35:20;;;;;;;29.45;6.13;;;7.90;99.90;;;;;;6269137;22;20348;-77
2024/01/25 11:37:47;;;;;;;34.40;6.95;;;7.80;99.90;;;;;;6268003;22;20012;-77
2024/01/25 11:40:14;;;;;;;35.70;6.72;;;7.80;99.90;;;;;;6269206;22;20023;-78
2024/01/25 11:42:42;;;;;;;36.60;6.45;;;7.80;99.90;;;;;;6271202;22;20095;-77
2024/01/25 11:45:10;;;;;;;28.50;6.30;;;7.80;99.90;;;;;;6266592;22;20039;-78
2024/01/25 11:47:40;;;;;;;28.90;5.50;;;7.70;99.90;;;;;;6268603;22;20026;-77
2024/01/25 11:50:07;;;;;;;28.77;6.00;;;7.60;99.90;;;;;;6268914;22;20012;-77
2024/01/25 11:52:33;;;;;;;31.98;6.28;;;7.60;99.90;;;;;;6268115;22;20073;-77
2024/01/25 11:55:07;;;;;;;30.33;6.80;;;7.60;99.90;;;;;;6269094;22;20391;-77
2024/01/25 11:57:41;;;;;;;27.80;5.25;;;7.60;99.90;;;;;;6269148;22;20047;-78
2024/01/25 12:00:09;;;;;;;28.58;6.00;;;7.60;99.90;;;;;;6268066;22;20034;-77
2024/01/25 12:02:38;;;;;;;39.25;6.25;;;7.70;99.90;;;;;;6269271;22;20075;-78
2024/01/25 12:05:05;;;;;;;26.05;5.32;;;7.70;99.90;;;;;;6268851;22;20016;-77
2024/01/25 12:07:31;;;;;;;26.75;6.03;;;7.80;99.90;;;;;;6268341;22;20024;-77
2024/01/25 12:10:05;;;;;;;29.23;6.32;;;7.80;99.90;;;;;;6268664;22;20015;-77
2024/01/25 12:12:31;;;;;;;33.65;7.18;;;7.90;99.90;;;;;;6268097;22;20012;-77
2024/01/25 12:15:01;;;;;;;31.23;5.88;;;7.90;99.90;;;;;;6268608;22;20352;-77
2024/01/25 12:17:28;;;;;;;25.13;5.70;;;7.90;99.90;;;;;;6268815;22;20083;-78
2024/01/25 12:19:58;;;;;;;34.65;6.63;;;7.90;99.90;;;;;;6268668;22;20733;-77
2024/01/25 12:22:27;;;;;;;26.73;5.40;;;7.90;99.90;;;;;;6270614;22;20020;-78
2024/01/25 12:24:57;;;;;;;28.83;6.28;;;7.90;99.90;;;;;;6268971;22;20027;-77
2024/01/25 12:27:24;;;;;;;25.80;5.70;;;8.00;99.90;;;;;;6270417;22;20071;-77
2024/01/25 12:29:53;;;;;;;26.83;5.28;;;8.10;99.90;;;;;;6268413;22;20466;-77
2024/01/25 12:32:20;;;;;;;23.90;5.65;;;8.20;99.90;;;;;;6269695;22;20019;-77
2024/01/25 12:34:56;;;;;;;30.38;6.32;;;8.30;99.90;;;;;;6270685;22;20138;-77
2024/01/25 12:37:22;;;;;;;23.08;5.15;;;8.30;99.90;;;;;;6272679;22;20015;-77
2024/01/25 12:39:48;;;;;;;24.02;5.15;;;8.40;99.90;;;;;;6270628;22;20016;-78
2024/01/25 12:42:14;;;;;;;23.52;5.53;;;8.40;99.90;;;;;;6270123;22;20458;-77
2024/01/25 12:44:39;;;;;;;29.27;5.82;;;8.50;99.90;;;;;;6271956;22;20087;-77
2024/01/25 12:47:07;;;;;;;32.40;6.45;;;8.50;99.90;;;;;;6270646;22;20030;-77